Gibsonton, Florida
Current Conditions -  °F | °C
As of 6:58 PM on Thursday 27 Nov 2014 (Local Time) from KMCF Reporting Station
Clear Clear  
Wind Chill: 56°   Ceiling: Unl
Heat Index: 56°   Visibility: 10mi
Dew Point: 44°   Wind: 13mph
Humidity: 63%   Direction: 360°N
Pressure: 30.26"   Gusts: 23mph
Location:  27.85°N, 82.38°W
Report Text: KMCF 272358Z AUTO 36011G20KT 340V040 10SM CLR 14/07 A3026 RMK AO2 SLP250 T01350065 10219 20135 53013
Loading
Personal Weather Stations






























Interactive Weather Map New forecast layout! Learn more

10-Day Weather Forecast

Advertisements
Track Severe Weather on mobile